Time;durP1;ratioP1;P1;durP2;ratioP2;P2;SDS_P1;SDS_P2;PMS_P1;PMS_P2;Temp;Humidity;BMP_temperature;BMP_pressure;BME280_temperature;BME280_humidity;BME280_pressure;Samples;Min_cycle;Max_cycle;Signal;HPM_P1;HPM_P2
2022/01/14 00:02:08;;;;;;;46.47;20.40;;;;;;;;;;5114955;28;20086;-69
2022/01/14 00:04:34;;;;;;;42.40;20.33;;;;;;;;;;5132796;27;20083;-69
2022/01/14 00:07:00;;;;;;;44.65;20.10;;;;;;;;;;5118103;28;20050;-69
2022/01/14 00:09:27;;;;;;;42.67;20.95;;;;;;;;;;5117551;28;20059;-68
2022/01/14 00:11:56;;;;;;;;;;;;;;;;;;5117861;28;20060;-69
2022/01/14 00:14:45;;;;;;;40.38;17.83;;;;;;;;;;5118084;28;20036;-67
2022/01/14 00:17:12;;;;;;;42.58;18.58;;;;;;;;;;5117510;28;20043;-70
2022/01/14 00:19:39;;;;;;;43.65;19.30;;;;;;;;;;5117164;28;20544;-69
2022/01/14 00:22:10;;;;;;;42.88;19.02;;;;;;;;;;5117443;28;20501;-73
2022/01/14 00:33:08;;;;;;;42.33;18.38;;;;;;;;;;5117343;28;20402;-69
2022/01/14 00:35:36;;;;;;;43.05;19.08;;;;;;;;;;5117240;28;20096;-70
2022/01/14 00:38:02;;;;;;;44.03;18.90;;;;;;;;;;5133261;27;20050;-69
2022/01/14 00:40:28;;;;;;;;;;;;;;;;;;5117727;28;20039;-70
2022/01/14 00:42:54;;;;;;;46.55;21.67;;;;;;;;;;5117476;28;19926;-68
2022/01/14 00:45:21;;;;;;;48.17;20.42;;;;;;;;;;5116546;28;20501;-68
2022/01/14 00:47:48;;;;;;;;;;;;;;;;;;5133230;27;20387;-70
2022/01/14 00:50:14;;;;;;;;;;;;;;;;;;5117812;28;19923;-70
2022/01/14 00:52:41;;;;;;;39.97;21.50;;;;;;;;;;5116949;28;19919;-68
2022/01/14 00:55:08;;;;;;;51.45;22.20;;;;;;;;;;5116930;28;20051;-69
2022/01/14 01:00:20;;;;;;;51.38;22.58;;;;;;;;;;5133139;27;20409;-71
2022/01/14 01:02:47;;;;;;;46.40;21.85;;;;;;;;;;5132874;27;20092;-69
2022/01/14 01:05:14;;;;;;;49.25;22.13;;;;;;;;;;5098566;28;20043;-73
2022/01/14 01:07:45;;;;;;;38.42;22.40;;;;;;;;;;5131256;27;20048;-69
2022/01/14 01:10:12;;;;;;;44.60;22.65;;;;;;;;;;5091380;28;20084;-74
2022/01/14 01:12:51;;;;;;;49.70;22.05;;;;;;;;;;5075659;28;20059;-71
2022/01/14 01:15:17;;;;;;;45.60;20.23;;;;;;;;;;5074627;28;20086;-67
2022/01/14 01:17:44;;;;;;;48.17;20.33;;;;;;;;;;5057901;28;20473;-68
2022/01/14 01:20:12;;;;;;;46.75;22.23;;;;;;;;;;5075515;28;20133;-68
2022/01/14 01:22:39;;;;;;;46.70;22.80;;;;;;;;;;5074523;28;20048;-69
2022/01/14 01:25:05;;;;;;;;;;;;;;;;;;5074641;28;20044;-68
2022/01/14 01:27:37;;;;;;;52.90;23.52;;;;;;;;;;5075545;28;19928;-69
2022/01/14 01:30:12;;;;;;;52.90;22.83;;;;;;;;;;5075738;28;20477;-69
2022/01/14 01:32:38;;;;;;;51.47;20.88;;;;;;;;;;5076165;28;20175;-67
2022/01/14 01:35:04;;;;;;;45.72;21.30;;;;;;;;;;5074153;28;20136;-69
2022/01/14 01:37:30;;;;;;;49.88;21.52;;;;;;;;;;5075333;28;20102;-69
2022/01/14 01:39:56;;;;;;;48.30;20.42;;;;;;;;;;5075292;28;20052;-70
2022/01/14 01:42:27;;;;;;;40.90;19.45;;;;;;;;;;5073900;28;20523;-69
2022/01/14 01:44:54;;;;;;;48.35;20.05;;;;;;;;;;5076074;28;20074;-68
2022/01/14 01:47:22;;;;;;;43.75;19.95;;;;;;;;;;5075064;28;20050;-69
2022/01/14 01:49:48;;;;;;;48.55;20.35;;;;;;;;;;5075499;28;20083;-69
2022/01/14 01:52:14;;;;;;;60.25;21.67;;;;;;;;;;5075134;28;20048;-67
2022/01/14 01:54:41;;;;;;;49.75;23.58;;;;;;;;;;5075033;28;20060;-69
2022/01/14 01:57:08;;;;;;;49.40;22.25;;;;;;;;;;5057943;28;20127;-70
2022/01/14 01:59:34;;;;;;;49.50;21.67;;;;;;;;;;5074139;28;20135;-70
2022/01/14 02:02:01;;;;;;;44.72;19.67;;;;;;;;;;5074857;28;20052;-68
2022/01/14 02:04:28;;;;;;;50.33;21.30;;;;;;;;;;5073671;28;20101;-69
2022/01/14 02:06:55;;;;;;;44.92;21.40;;;;;;;;;;5074802;28;20079;-69
2022/01/14 02:09:21;;;;;;;49.45;22.15;;;;;;;;;;5074785;28;20135;-76
2022/01/14 02:11:47;;;;;;;44.83;21.23;;;;;;;;;;5108715;28;20138;-69
2022/01/14 02:17:28;;;;;;;48.10;21.67;;;;;;;;;;5076218;28;20051;-68
2022/01/14 02:22:48;;;;;;;47.78;21.73;;;;;;;;;;5115128;28;20059;-70
2022/01/14 02:25:16;;;;;;;46.38;19.95;;;;;;;;;;5114528;28;20051;-67
2022/01/14 02:27:42;;;;;;;42.03;20.05;;;;;;;;;;5114200;28;20078;-67
2022/01/14 02:30:09;;;;;;;44.20;21.45;;;;;;;;;;5115487;28;20055;-70
2022/01/14 02:32:36;;;;;;;46.35;20.50;;;;;;;;;;5115949;28;20212;-70
2022/01/14 02:35:02;;;;;;;43.65;21.40;;;;;;;;;;5115603;28;20080;-69
2022/01/14 02:37:28;;;;;;;39.45;22.23;;;;;;;;;;5114592;28;20505;-70
2022/01/14 02:39:54;;;;;;;44.80;22.35;;;;;;;;;;5114980;28;20138;-69
2022/01/14 02:42:21;;;;;;;49.75;22.90;;;;;;;;;;5115110;28;20062;-68
2022/01/14 02:44:48;;;;;;;43.97;21.50;;;;;;;;;;5115320;28;20088;-70
2022/01/14 02:47:17;;;;;;;50.08;23.88;;;;;;;;;;5114856;28;20089;-70
2022/01/14 02:49:43;;;;;;;43.22;22.67;;;;;;;;;;5114432;28;20079;-68
2022/01/14 02:52:10;;;;;;;49.50;24.00;;;;;;;;;;5115314;28;20047;-68
2022/01/14 02:54:51;;;;;;;45.10;22.70;;;;;;;;;;5114760;28;20511;-68
2022/01/14 02:57:17;;;;;;;52.25;23.52;;;;;;;;;;5114685;28;20047;-69
2022/01/14 02:59:43;;;;;;;46.10;23.52;;;;;;;;;;5114501;28;20043;-69
2022/01/14 03:02:10;;;;;;;49.33;23.83;;;;;;;;;;5114358;28;20043;-69
2022/01/14 03:04:39;;;;;;;53.40;24.10;;;;;;;;;;5115035;28;20059;-68
2022/01/14 03:07:06;;;;;;;47.15;25.45;;;;;;;;;;5114625;28;20070;-68
2022/01/14 03:09:32;;;;;;;46.10;24.08;;;;;;;;;;5114269;28;20390;-69
2022/01/14 03:12:00;;;;;;;46.28;23.55;;;;;;;;;;5114983;28;20056;-68
2022/01/14 03:14:26;;;;;;;55.63;23.33;;;;;;;;;;5114249;28;20058;-68
2022/01/14 03:16:53;;;;;;;42.85;22.98;;;;;;;;;;5114559;28;20112;-68
2022/01/14 03:19:23;;;;;;;59.78;24.10;;;;;;;;;;5114186;28;20050;-70
2022/01/14 03:21:52;;;;;;;47.97;23.77;;;;;;;;;;5114058;28;20513;-68
2022/01/14 03:26:45;;;;;;;49.17;24.80;;;;;;;;;;5114083;28;20054;-68
2022/01/14 03:29:12;;;;;;;49.88;23.30;;;;;;;;;;5114115;28;20058;-71
2022/01/14 03:31:39;;;;;;;49.72;23.75;;;;;;;;;;5113928;28;20043;-68
2022/01/14 03:34:05;;;;;;;42.17;23.45;;;;;;;;;;5114396;28;20060;-70
2022/01/14 03:36:31;;;;;;;52.65;24.77;;;;;;;;;;5095355;28;20054;-69
2022/01/14 03:38:57;;;;;;;55.10;24.60;;;;;;;;;;5114165;28;20067;-71
2022/01/14 03:41:23;;;;;;;53.88;24.80;;;;;;;;;;5113957;28;20086;-70
2022/01/14 03:43:49;;;;;;;48.85;23.63;;;;;;;;;;5113843;28;20043;-70
2022/01/14 03:46:15;;;;;;;51.67;24.08;;;;;;;;;;5129740;27;20069;-70
2022/01/14 03:48:41;;;;;;;52.67;24.30;;;;;;;;;;5113766;28;20047;-71
2022/01/14 03:51:07;;;;;;;49.85;24.15;;;;;;;;;;5113842;28;20051;-71
2022/01/14 03:53:33;;;;;;;46.97;24.20;;;;;;;;;;5113866;28;20180;-70
2022/01/14 03:55:59;;;;;;;48.20;24.45;;;;;;;;;;5114172;28;20049;-71
2022/01/14 03:58:25;;;;;;;52.08;24.30;;;;;;;;;;5113872;28;20135;-71
2022/01/14 04:00:52;;;;;;;46.22;24.13;;;;;;;;;;5113657;28;20105;-71
2022/01/14 04:03:18;;;;;;;53.08;24.38;;;;;;;;;;5113768;28;20044;-70
2022/01/14 04:05:44;;;;;;;48.33;24.92;;;;;;;;;;5113598;28;20126;-70
2022/01/14 04:08:10;;;;;;;50.53;24.20;;;;;;;;;;5113690;28;20040;-71
2022/01/14 04:10:36;;;;;;;52.92;24.05;;;;;;;;;;5111268;28;20150;-71
2022/01/14 04:13:06;;;;;;;50.83;23.90;;;;;;;;;;5113624;28;20055;-71
2022/01/14 04:15:41;;;;;;;51.10;23.27;;;;;;;;;;5113931;28;20043;-71
2022/01/14 04:18:08;;;;;;;49.50;23.83;;;;;;;;;;5097384;28;20055;-70
2022/01/14 04:20:35;;;;;;;50.75;24.98;;;;;;;;;;5113515;28;20044;-70
2022/01/14 04:23:02;;;;;;;56.83;24.90;;;;;;;;;;5112773;28;20039;-70
2022/01/14 04:25:28;;;;;;;;;;;;;;;;;;5113964;28;20048;-70
2022/01/14 04:27:55;;;;;;;54.00;24.75;;;;;;;;;;5095978;28;20461;-70
2022/01/14 04:30:21;;;;;;;54.55;25.48;;;;;;;;;;5113450;28;20479;-70
2022/01/14 04:32:47;;;;;;;55.42;24.58;;;;;;;;;;5113406;28;20048;-70
2022/01/14 04:35:13;;;;;;;58.28;25.65;;;;;;;;;;5113403;28;20131;-70
2022/01/14 04:37:39;;;;;;;51.20;25.17;;;;;;;;;;5113489;28;20040;-70
2022/01/14 04:40:06;;;;;;;53.42;24.52;;;;;;;;;;5112536;28;20463;-70
2022/01/14 04:42:32;;;;;;;53.28;25.33;;;;;;;;;;5113662;28;20491;-70
2022/01/14 04:44:58;;;;;;;51.30;24.73;;;;;;;;;;5113322;28;20043;-71
2022/01/14 04:47:44;;;;;;;55.25;24.67;;;;;;;;;;5095196;28;20050;-70
2022/01/14 04:50:10;;;;;;;50.60;24.77;;;;;;;;;;5117124;28;20147;-70
2022/01/14 04:52:36;;;;;;;;;;;;;;;;;;5099448;28;20048;-70
2022/01/14 04:55:02;;;;;;;51.83;25.90;;;;;;;;;;5116938;28;19989;-70
2022/01/14 04:57:28;;;;;;;54.78;25.35;;;;;;;;;;5116779;28;20126;-70
2022/01/14 04:59:54;;;;;;;51.10;26.08;;;;;;;;;;5116901;28;20039;-70
2022/01/14 05:02:21;;;;;;;60.78;27.38;;;;;;;;;;5116803;28;20047;-70
2022/01/14 05:04:47;;;;;;;54.22;26.58;;;;;;;;;;5117537;28;20047;-70
2022/01/14 05:07:23;;;;;;;;;;;;;;;;;;5116253;28;20047;-68
2022/01/14 05:10:07;;;;;;;49.30;25.77;;;;;;;;;;5116643;28;19927;-69
2022/01/14 05:12:41;;;;;;;49.50;25.92;;;;;;;;;;5116699;28;20051;-69
2022/01/14 05:15:07;;;;;;;47.38;25.00;;;;;;;;;;5116811;28;20055;-70
2022/01/14 05:17:34;;;;;;;47.50;25.10;;;;;;;;;;5116717;28;20106;-69
2022/01/14 05:20:00;;;;;;;;;;;;;;;;;;5132870;27;20044;-69
2022/01/14 05:22:26;;;;;;;54.60;26.63;;;;;;;;;;5116899;28;19924;-69
2022/01/14 05:24:52;;;;;;;46.42;25.08;;;;;;;;;;5116867;28;20043;-69
2022/01/14 05:27:18;;;;;;;46.97;24.25;;;;;;;;;;5116702;28;20040;-69
2022/01/14 05:29:45;;;;;;;49.08;26.35;;;;;;;;;;5116262;28;20077;-69
2022/01/14 05:32:14;;;;;;;53.92;27.33;;;;;;;;;;5116359;28;20070;-70
2022/01/14 05:34:40;;;;;;;55.67;26.20;;;;;;;;;;5116244;28;20479;-69
2022/01/14 05:37:07;;;;;;;54.10;27.88;;;;;;;;;;5098171;28;20101;-69
2022/01/14 05:39:33;;;;;;;;;;;;;;;;;;5116461;28;20429;-68
2022/01/14 05:42:00;;;;;;;61.83;27.98;;;;;;;;;;5097634;28;19920;-69
2022/01/14 05:44:26;;;;;;;50.95;27.10;;;;;;;;;;5116100;28;20048;-69
2022/01/14 05:46:53;;;;;;;56.55;28.92;;;;;;;;;;5131758;27;20039;-70
2022/01/14 05:49:19;;;;;;;55.28;27.40;;;;;;;;;;5115846;28;20055;-69
2022/01/14 05:51:55;;;;;;;51.40;26.77;;;;;;;;;;5115700;28;20051;-70
2022/01/14 05:54:21;;;;;;;54.35;26.65;;;;;;;;;;5115600;28;20188;-71
2022/01/14 05:56:47;;;;;;;49.85;25.77;;;;;;;;;;5116004;28;20035;-69
2022/01/14 05:59:14;;;;;;;49.85;24.90;;;;;;;;;;5130346;27;20107;-69
2022/01/14 06:01:40;;;;;;;48.35;25.38;;;;;;;;;;5115572;28;20539;-68
2022/01/14 06:04:06;;;;;;;49.17;24.45;;;;;;;;;;5097432;28;20135;-70
2022/01/14 06:06:33;;;;;;;50.30;24.95;;;;;;;;;;5116054;28;20078;-70
2022/01/14 06:08:59;;;;;;;53.67;25.55;;;;;;;;;;5115382;28;20066;-70
2022/01/14 06:11:26;;;;;;;55.67;25.75;;;;;;;;;;5115515;28;20077;-70
2022/01/14 06:13:52;;;;;;;52.17;24.50;;;;;;;;;;5098385;28;20419;-70
2022/01/14 06:16:18;;;;;;;50.10;24.42;;;;;;;;;;5097536;28;20156;-69
2022/01/14 06:18:45;;;;;;;50.50;25.50;;;;;;;;;;5116148;28;20050;-70
2022/01/14 06:21:11;;;;;;;46.72;25.23;;;;;;;;;;5115053;28;20044;-70
2022/01/14 06:23:37;;;;;;;;;;;;;;;;;;5115604;28;20043;-70
2022/01/14 06:26:04;;;;;;;52.15;25.85;;;;;;;;;;5114982;28;20016;-69
2022/01/14 06:28:30;;;;;;;51.88;24.77;;;;;;;;;;5115178;28;20558;-70
2022/01/14 06:30:56;;;;;;;51.30;24.58;;;;;;;;;;5115122;28;20480;-70
2022/01/14 06:33:22;;;;;;;55.90;25.13;;;;;;;;;;5115053;28;20043;-70
2022/01/14 06:35:49;;;;;;;60.30;26.27;;;;;;;;;;5115010;28;20039;-68
2022/01/14 06:38:16;;;;;;;51.30;24.60;;;;;;;;;;5114964;28;20453;-70
2022/01/14 06:40:42;;;;;;;49.95;24.23;;;;;;;;;;5115486;28;20099;-69
2022/01/14 06:43:08;;;;;;;40.97;21.38;;;;;;;;;;5114814;28;20047;-69
2022/01/14 06:45:35;;;;;;;50.38;23.30;;;;;;;;;;5114923;28;20043;-70
2022/01/14 06:48:01;;;;;;;44.20;23.05;;;;;;;;;;5114984;28;20049;-70
2022/01/14 06:50:27;;;;;;;41.75;22.77;;;;;;;;;;5114822;28;20093;-71
2022/01/14 06:52:53;;;;;;;39.25;22.38;;;;;;;;;;5114824;28;20040;-69
2022/01/14 06:55:19;;;;;;;43.65;22.38;;;;;;;;;;5114618;28;20112;-69
2022/01/14 06:57:45;;;;;;;47.30;22.65;;;;;;;;;;5114595;28;20036;-70
2022/01/14 07:00:13;;;;;;;42.20;22.20;;;;;;;;;;5096681;28;20052;-69
2022/01/14 07:02:40;;;;;;;50.28;22.02;;;;;;;;;;5096396;28;20039;-69
2022/01/14 07:05:06;;;;;;;49.53;21.05;;;;;;;;;;5114475;28;20097;-70
2022/01/14 07:07:33;;;;;;;50.78;21.10;;;;;;;;;;5114455;28;20043;-69
2022/01/14 07:09:59;;;;;;;;;;;;;;;;;;5114622;28;20047;-71
2022/01/14 07:12:32;;;;;;;45.75;21.75;;;;;;;;;;5113622;28;19920;-71
2022/01/14 07:14:59;;;;;;;41.13;19.85;;;;;;;;;;5114389;28;20087;-69
2022/01/14 07:17:26;;;;;;;40.70;19.70;;;;;;;;;;5114686;28;20043;-70
2022/01/14 07:19:54;;;;;;;49.30;20.33;;;;;;;;;;5114312;28;20047;-69
2022/01/14 07:22:21;;;;;;;39.90;17.17;;;;;;;;;;5096194;28;20068;-69
2022/01/14 07:24:47;;;;;;;;;;;;;;;;;;5115109;28;20087;-69
2022/01/14 07:27:13;;;;;;;47.38;17.83;;;;;;;;;;5114785;28;20027;-69
2022/01/14 07:29:39;;;;;;;44.05;16.27;;;;;;;;;;5114109;28;20043;-71
2022/01/14 07:32:06;;;;;;;38.65;15.82;;;;;;;;;;5114104;28;20083;-69
2022/01/14 07:34:32;;;;;;;39.35;15.65;;;;;;;;;;5114846;28;20054;-71
2022/01/14 07:36:58;;;;;;;38.58;16.58;;;;;;;;;;5114090;28;20466;-69
2022/01/14 07:39:24;;;;;;;;;;;;;;;;;;5114312;28;20043;-70
2022/01/14 07:41:50;;;;;;;36.17;16.63;;;;;;;;;;5114477;28;19972;-68
2022/01/14 07:44:17;;;;;;;34.20;15.77;;;;;;;;;;5114000;28;20047;-69
2022/01/14 07:46:44;;;;;;;42.17;16.77;;;;;;;;;;5113439;28;20044;-69
2022/01/14 07:49:10;;;;;;;43.33;16.00;;;;;;;;;;5113094;28;20530;-69
2022/01/14 07:51:37;;;;;;;39.67;16.40;;;;;;;;;;5113361;28;20135;-69
2022/01/14 07:54:07;;;;;;;38.67;16.00;;;;;;;;;;5113319;28;20054;-69
2022/01/14 07:56:33;;;;;;;38.55;15.25;;;;;;;;;;5129123;28;20040;-69
2022/01/14 07:59:00;;;;;;;39.95;14.95;;;;;;;;;;5113458;28;20097;-71
2022/01/14 08:01:27;;;;;;;34.60;14.75;;;;;;;;;;5094928;28;20219;-70
2022/01/14 08:03:53;;;;;;;34.42;14.15;;;;;;;;;;5113236;28;20132;-70
2022/01/14 08:06:19;;;;;;;36.13;13.90;;;;;;;;;;5112437;28;20126;-70
2022/01/14 08:08:45;;;;;;;39.45;14.65;;;;;;;;;;5112256;28;20048;-70
2022/01/14 08:11:11;;;;;;;33.95;14.38;;;;;;;;;;5111767;28;20055;-70
2022/01/14 08:13:37;;;;;;;39.53;13.60;;;;;;;;;;5093510;28;20130;-70
2022/01/14 08:16:04;;;;;;;31.98;13.88;;;;;;;;;;5111748;28;20043;-70
2022/01/14 08:18:30;;;;;;;34.63;13.73;;;;;;;;;;5111631;28;20090;-72
2022/01/14 08:20:56;;;;;;;36.72;12.65;;;;;;;;;;5111778;28;20040;-71
2022/01/14 08:23:23;;;;;;;33.60;13.88;;;;;;;;;;5129374;27;20117;-71
2022/01/14 08:25:53;;;;;;;;;;;;;;;;;;5115843;28;20047;-70
2022/01/14 08:28:19;;;;;;;38.58;13.52;;;;;;;;;;5115045;28;20248;-71
2022/01/14 08:30:45;;;;;;;32.22;12.57;;;;;;;;;;5116183;28;20047;-70
2022/01/14 08:33:12;;;;;;;28.70;12.63;;;;;;;;;;5115620;28;20046;-71
2022/01/14 08:35:39;;;;;;;34.63;12.93;;;;;;;;;;5115544;28;20487;-71
2022/01/14 08:38:05;;;;;;;;;;;;;;;;;;5116515;28;20079;-69
2022/01/14 08:40:31;;;;;;;29.95;13.88;;;;;;;;;;5115738;28;19969;-69
2022/01/14 08:42:57;;;;;;;31.17;13.35;;;;;;;;;;5116030;28;20048;-70
2022/01/14 08:45:23;;;;;;;29.23;13.63;;;;;;;;;;5115563;28;20177;-70
2022/01/14 08:47:52;;;;;;;32.97;12.50;;;;;;;;;;5115054;28;20043;-69
2022/01/14 08:50:29;;;;;;;30.00;12.38;;;;;;;;;;5115287;28;20051;-70
2022/01/14 08:52:55;;;;;;;27.13;11.50;;;;;;;;;;5115705;28;20479;-70
2022/01/14 08:55:22;;;;;;;28.25;11.60;;;;;;;;;;5097050;28;20123;-70
2022/01/14 08:57:48;;;;;;;29.15;11.23;;;;;;;;;;5115260;28;20049;-69
2022/01/14 09:00:15;;;;;;;32.75;11.63;;;;;;;;;;5115178;28;20043;-69
2022/01/14 09:02:42;;;;;;;31.45;10.65;;;;;;;;;;5115582;28;20052;-69
2022/01/14 09:05:08;;;;;;;39.58;11.60;;;;;;;;;;5115575;28;20050;-70
2022/01/14 09:07:35;;;;;;;23.35;10.00;;;;;;;;;;5114933;28;20036;-70
2022/01/14 09:10:02;;;;;;;25.50;10.25;;;;;;;;;;5130827;27;20092;-67
2022/01/14 09:12:29;;;;;;;29.27;10.15;;;;;;;;;;5114867;28;20475;-69
2022/01/14 09:14:55;;;;;;;31.45;10.13;;;;;;;;;;5114976;28;20047;-70
2022/01/14 09:17:21;;;;;;;27.10;9.93;;;;;;;;;;5114976;28;20165;-70
2022/01/14 09:19:48;;;;;;;28.17;10.25;;;;;;;;;;5114914;28;20047;-69
2022/01/14 09:22:16;;;;;;;30.58;9.35;;;;;;;;;;5114876;28;20049;-68
2022/01/14 09:24:42;;;;;;;25.23;9.20;;;;;;;;;;5114714;28;20126;-69
2022/01/14 09:27:08;;;;;;;31.48;9.30;;;;;;;;;;5114717;28;20093;-70
2022/01/14 09:29:34;;;;;;;28.65;9.30;;;;;;;;;;5096322;28;20046;-69
2022/01/14 09:32:00;;;;;;;30.08;8.80;;;;;;;;;;5114613;28;20496;-69
2022/01/14 09:34:26;;;;;;;24.45;8.48;;;;;;;;;;5114939;28;20400;-70
2022/01/14 09:36:54;;;;;;;28.42;8.30;;;;;;;;;;5114473;28;20047;-70
2022/01/14 09:39:21;;;;;;;28.38;8.98;;;;;;;;;;5114487;28;20126;-69
2022/01/14 09:41:47;;;;;;;25.70;8.77;;;;;;;;;;5097173;28;20056;-69
2022/01/14 09:44:16;;;;;;;26.05;8.65;;;;;;;;;;5114720;28;20476;-70
2022/01/14 09:46:43;;;;;;;24.83;8.23;;;;;;;;;;5095961;28;20073;-70
2022/01/14 09:49:09;;;;;;;30.88;7.75;;;;;;;;;;5114881;28;20043;-69
2022/01/14 09:51:35;;;;;;;27.80;7.68;;;;;;;;;;5114298;28;20044;-70
2022/01/14 09:54:02;;;;;;;24.83;7.72;;;;;;;;;;5114158;28;20489;-69
2022/01/14 09:56:28;;;;;;;26.27;7.75;;;;;;;;;;5114037;28;20526;-70
2022/01/14 09:58:54;;;;;;;27.77;8.60;;;;;;;;;;5114038;28;20467;-69
2022/01/14 10:01:22;;;;;;;28.98;7.25;;;;;;;;;;5114132;28;20079;-70
2022/01/14 10:03:49;;;;;;;26.00;7.25;;;;;;;;;;5114424;28;20050;-69
2022/01/14 10:06:34;;;;;;;24.15;6.35;;;;;;;;;;5113874;28;20044;-70
2022/01/14 10:09:07;;;;;;;23.55;6.85;;;;;;;;;;5114210;28;20411;-71
2022/01/14 10:11:35;;;;;;;21.90;6.82;;;;;;;;;;5113754;28;20055;-71
2022/01/14 10:14:08;;;;;;;22.88;7.55;;;;;;;;;;5113893;28;20048;-70
2022/01/14 10:16:35;;;;;;;22.85;7.03;;;;;;;;;;5130008;27;20058;-67
2022/01/14 10:19:01;;;;;;;;;;;;;;;;;;5114210;28;20118;-69
2022/01/14 10:21:34;;;;;;;23.00;6.15;;;;;;;;;;5113765;28;20363;-68
2022/01/14 10:24:00;;;;;;;21.73;7.22;;;;;;;;;;5113693;28;20047;-69
2022/01/14 10:26:27;;;;;;;22.40;6.47;;;;;;;;;;5113736;28;20039;-71
2022/01/14 10:29:08;;;;;;;24.95;6.43;;;;;;;;;;5113535;28;20119;-69
2022/01/14 10:31:35;;;;;;;25.50;6.32;;;;;;;;;;5114069;28;20040;-71
2022/01/14 10:34:10;;;;;;;20.73;5.88;;;;;;;;;;5114052;28;20047;-69
2022/01/14 10:36:36;;;;;;;20.83;6.25;;;;;;;;;;5114109;28;20096;-71
2022/01/14 10:39:17;;;;;;;26.27;5.47;;;;;;;;;;5114029;28;20090;-70
2022/01/14 10:41:43;;;;;;;21.55;5.63;;;;;;;;;;5113673;28;20396;-71
2022/01/14 10:44:27;;;;;;;26.50;5.85;;;;;;;;;;5114147;28;20418;-70
2022/01/14 10:47:12;;;;;;;23.77;5.65;;;;;;;;;;5113077;28;20067;-71
2022/01/14 10:49:38;;;;;;;24.63;5.82;;;;;;;;;;5113183;28;20067;-72
2022/01/14 10:52:12;;;;;;;29.38;6.20;;;;;;;;;;5113201;28;20079;-71
2022/01/14 10:54:46;;;;;;;27.77;6.85;;;;;;;;;;5113213;28;20102;-71
2022/01/14 10:57:13;;;;;;;25.17;5.95;;;;;;;;;;5095591;28;20047;-70
2022/01/14 10:59:39;;;;;;;24.23;5.90;;;;;;;;;;5112965;28;20047;-71
2022/01/14 11:02:24;;;;;;;31.40;7.13;;;;;;;;;;5113462;28;20055;-70
2022/01/14 11:05:02;;;;;;;23.70;7.00;;;;;;;;;;5112866;28;20179;-71
2022/01/14 11:07:28;;;;;;;24.08;6.38;;;;;;;;;;5112957;28;20050;-71
2022/01/14 11:09:56;;;;;;;29.15;7.03;;;;;;;;;;5112697;28;20079;-71
2022/01/14 11:12:22;;;;;;;25.35;6.68;;;;;;;;;;5113300;28;20055;-71
2022/01/14 11:14:49;;;;;;;24.65;6.57;;;;;;;;;;5112596;28;20073;-70
2022/01/14 11:17:15;;;;;;;23.08;6.97;;;;;;;;;;5112697;28;20044;-71
2022/01/14 11:19:44;;;;;;;31.88;7.38;;;;;;;;;;5112594;28;20047;-72
2022/01/14 11:24:55;;;;;;;28.15;7.05;;;;;;;;;;5112831;28;20048;-69
2022/01/14 11:27:22;;;;;;;27.40;7.10;;;;;;;;;;5112398;28;20495;-70
2022/01/14 11:29:49;;;;;;;29.65;8.52;;;;;;;;;;5112349;28;20048;-70
2022/01/14 11:32:15;;;;;;;;;;;;;;;;;;5112856;28;20487;-72
2022/01/14 11:34:42;;;;;;;26.33;7.38;;;;;;;;;;5112385;28;19919;-71
2022/01/14 11:37:14;;;;;;;25.83;7.25;;;;;;;;;;5112328;28;20083;-71
2022/01/14 11:39:51;;;;;;;28.25;8.00;;;;;;;;;;5112336;28;20054;-70
2022/01/14 11:42:17;;;;;;;27.13;7.90;;;;;;;;;;5094872;28;20153;-70
2022/01/14 11:44:57;;;;;;;29.75;10.38;;;;;;;;;;5112261;28;20043;-71
2022/01/14 11:47:27;;;;;;;26.70;7.60;;;;;;;;;;5112756;28;20066;-69
2022/01/14 11:49:54;;;;;;;37.95;14.80;;;;;;;;;;5094014;28;20056;-69
2022/01/14 11:52:42;;;;;;;34.78;10.95;;;;;;;;;;5112229;28;20075;-68
2022/01/14 11:55:24;;;;;;;36.60;9.65;;;;;;;;;;5094141;28;20039;-69
2022/01/14 11:57:52;;;;;;;28.45;9.30;;;;;;;;;;5113403;28;20119;-68
2022/01/14 12:00:27;;;;;;;32.67;10.93;;;;;;;;;;5116443;28;20425;-68
2022/01/14 12:02:54;;;;;;;33.30;8.80;;;;;;;;;;5117063;28;20059;-69
2022/01/14 12:05:24;;;;;;;35.25;9.98;;;;;;;;;;5117149;28;20146;-69
2022/01/14 12:08:18;;;;;;;34.20;8.80;;;;;;;;;;5116216;28;20040;-69
2022/01/14 12:10:45;;;;;;;29.60;9.95;;;;;;;;;;5113509;28;20055;-69
2022/01/14 12:13:48;;;;;;;24.30;9.13;;;;;;;;;;5117027;28;20066;-69
2022/01/14 12:16:24;;;;;;;32.25;8.88;;;;;;;;;;5116614;28;20043;-70
2022/01/14 12:19:02;;;;;;;31.55;8.85;;;;;;;;;;5097881;28;20074;-70
2022/01/14 12:21:37;;;;;;;31.52;7.95;;;;;;;;;;5116173;28;20107;-69
2022/01/14 12:24:03;;;;;;;24.67;8.35;;;;;;;;;;5116104;28;20050;-69
2022/01/14 12:26:29;;;;;;;28.98;9.25;;;;;;;;;;5115976;28;20044;-69
2022/01/14 12:29:14;;;;;;;34.75;9.75;;;;;;;;;;5116381;28;20047;-69
2022/01/14 12:31:58;;;;;;;27.95;8.50;;;;;;;;;;5115886;28;20054;-69
2022/01/14 12:34:25;;;;;;;31.63;8.57;;;;;;;;;;5098504;28;20110;-69
2022/01/14 12:36:51;;;;;;;;;;;;;;;;;;5116150;28;20062;-69
2022/01/14 12:39:18;;;;;;;32.53;8.00;;;;;;;;;;5115705;28;20367;-68
2022/01/14 12:41:44;;;;;;;31.08;8.20;;;;;;;;;;5115741;28;20039;-69
2022/01/14 12:44:11;;;;;;;29.45;8.73;;;;;;;;;;5116144;28;20047;-69
2022/01/14 12:49:09;;;;;;;31.45;8.30;;;;;;;;;;5115484;28;20048;-69
2022/01/14 12:51:38;;;;;;;36.85;8.00;;;;;;;;;;5115464;28;20135;-69
2022/01/14 12:54:08;;;;;;;26.50;7.80;;;;;;;;;;5097301;28;20039;-68
2022/01/14 12:56:35;;;;;;;35.33;8.80;;;;;;;;;;5097307;28;20097;-67
2022/01/14 12:59:05;;;;;;;33.30;8.65;;;;;;;;;;5115659;28;20086;-69
2022/01/14 13:01:39;;;;;;;32.13;8.95;;;;;;;;;;5115469;28;20052;-69
2022/01/14 13:04:08;;;;;;;33.38;7.97;;;;;;;;;;5115125;28;20479;-69
2022/01/14 13:06:46;;;;;;;29.80;8.05;;;;;;;;;;5115045;28;20126;-69
2022/01/14 13:09:19;;;;;;;37.58;9.48;;;;;;;;;;5096779;28;20138;-69
2022/01/14 13:11:46;;;;;;;34.60;8.55;;;;;;;;;;5114991;28;20116;-69
2022/01/14 13:14:16;;;;;;;30.83;8.43;;;;;;;;;;5115430;28;20047;-69
2022/01/14 13:16:44;;;;;;;39.00;8.40;;;;;;;;;;5115276;28;20113;-69
2022/01/14 13:19:22;;;;;;;43.95;9.52;;;;;;;;;;5115160;28;20451;-69
2022/01/14 13:21:48;;;;;;;40.40;9.43;;;;;;;;;;5114826;28;20051;-69
2022/01/14 13:24:20;;;;;;;36.17;9.52;;;;;;;;;;5115089;28;20050;-70
2022/01/14 13:27:05;;;;;;;38.50;10.52;;;;;;;;;;5114596;28;20051;-69
2022/01/14 13:29:40;;;;;;;33.38;9.48;;;;;;;;;;5114608;28;20048;-69
2022/01/14 13:32:08;;;;;;;41.28;10.02;;;;;;;;;;5114769;28;20059;-69
2022/01/14 13:34:34;;;;;;;48.15;10.02;;;;;;;;;;5114494;28;20052;-69
2022/01/14 13:37:00;;;;;;;58.13;10.75;;;;;;;;;;5096336;28;20394;-69
2022/01/14 13:39:26;;;;;;;42.88;10.90;;;;;;;;;;5096971;28;20346;-69
2022/01/14 13:41:52;;;;;;;44.75;11.98;;;;;;;;;;5130355;27;20050;-69
2022/01/14 13:44:19;;;;;;;53.25;10.85;;;;;;;;;;5114038;28;20530;-69
2022/01/14 13:46:51;;;;;;;41.40;10.95;;;;;;;;;;5114773;28;20044;-69
2022/01/14 13:49:21;;;;;;;50.85;11.55;;;;;;;;;;5115034;28;20048;-69
2022/01/14 13:51:47;;;;;;;43.58;10.82;;;;;;;;;;5114304;28;20506;-69
2022/01/14 13:54:17;;;;;;;38.08;10.40;;;;;;;;;;5114173;28;20128;-69
2022/01/14 13:56:43;;;;;;;42.67;9.90;;;;;;;;;;5114458;28;20147;-69
2022/01/14 13:59:09;;;;;;;46.13;10.15;;;;;;;;;;5114113;28;20054;-70
2022/01/14 14:01:36;;;;;;;49.80;11.68;;;;;;;;;;5114034;28;20088;-69
2022/01/14 14:04:08;;;;;;;38.85;10.50;;;;;;;;;;5113698;28;20498;-69
2022/01/14 14:06:50;;;;;;;46.65;10.98;;;;;;;;;;5114481;28;20096;-69
2022/01/14 14:09:31;;;;;;;48.38;10.60;;;;;;;;;;5114236;28;20048;-69
2022/01/14 14:12:24;;;;;;;45.97;11.65;;;;;;;;;;5114153;28;20051;-69
2022/01/14 14:17:36;;;;;;;56.53;12.73;;;;;;;;;;5099116;28;20081;-69
2022/01/14 14:20:02;;;;;;;60.00;14.25;;;;;;;;;;5113285;28;20069;-69
2022/01/14 14:22:33;;;;;;;65.85;14.98;;;;;;;;;;5114156;28;20049;-69
2022/01/14 14:25:06;;;;;;;50.35;13.45;;;;;;;;;;5113694;28;20087;-68
2022/01/14 14:27:32;;;;;;;45.53;13.52;;;;;;;;;;5113586;28;20039;-69
2022/01/14 14:29:58;;;;;;;;;;;;;;;;;;5114242;28;20051;-69
2022/01/14 14:32:31;;;;;;;51.65;12.35;;;;;;;;;;5113376;28;19919;-69
2022/01/14 14:35:01;;;;;;;59.03;12.80;;;;;;;;;;5113394;28;20496;-69
2022/01/14 14:37:29;;;;;;;46.65;12.27;;;;;;;;;;5113045;28;20499;-69
2022/01/14 14:39:56;;;;;;;43.70;11.23;;;;;;;;;;5114033;28;20043;-68
2022/01/14 14:42:21;;;;;;;;;;;;;;;;;;5113852;28;20043;-70
2022/01/14 14:44:48;;;;;;;47.47;11.75;;;;;;;;;;5113440;28;20436;-70
2022/01/14 14:47:14;;;;;;;49.83;11.75;;;;;;;;;;5113179;28;20040;-69
2022/01/14 14:49:40;;;;;;;;;;;;;;;;;;5113514;28;20075;-69
2022/01/14 14:52:07;;;;;;;49.20;13.10;;;;;;;;;;5113168;28;19930;-69
2022/01/14 14:54:33;;;;;;;55.13;13.38;;;;;;;;;;5113022;28;20051;-69
2022/01/14 14:57:00;;;;;;;47.67;13.45;;;;;;;;;;5113157;28;20484;-69
2022/01/14 14:59:26;;;;;;;54.92;12.00;;;;;;;;;;5113037;28;20124;-69
2022/01/14 15:01:52;;;;;;;52.28;13.02;;;;;;;;;;5112892;28;20043;-69
2022/01/14 15:04:21;;;;;;;50.40;13.07;;;;;;;;;;5112874;28;20046;-69